createdAt,value
2023-05-26T00:00:57.077Z,7.56
2023-05-26T00:03:09.408Z,7.47
2023-05-26T00:05:22.761Z,7.37
2023-05-26T00:07:34.906Z,7.29
2023-05-26T00:09:46.917Z,7.19
2023-05-26T00:11:58.974Z,7.13
2023-05-26T00:14:12.066Z,7.09
2023-05-26T00:16:25.220Z,7.05
2023-05-26T00:18:37.261Z,7.07
2023-05-26T00:20:50.826Z,7.05
2023-05-26T00:23:02.941Z,7.07
2023-05-26T00:25:15.029Z,7.07
2023-05-26T00:27:27.114Z,7.05
2023-05-26T00:29:42.732Z,6.99
2023-05-26T00:31:54.977Z,6.98
2023-05-26T00:34:08.357Z,6.97
2023-05-26T00:36:21.952Z,6.98
2023-05-26T00:38:34.018Z,6.91
2023-05-26T00:40:47.624Z,6.87
2023-05-26T00:42:59.683Z,6.86
2023-05-26T00:45:12.763Z,6.83
2023-05-26T00:47:26.345Z,6.72
2023-05-26T00:49:38.431Z,6.65
2023-05-26T00:51:50.551Z,6.56
2023-05-26T00:54:04.110Z,6.54
2023-05-26T00:56:16.191Z,6.43
2023-05-26T00:58:28.267Z,6.40
2023-05-26T01:00:41.908Z,6.43
2023-05-26T01:01:41.833Z,6.41
2023-05-26T01:03:54.008Z,6.44
2023-05-26T01:06:06.007Z,6.43
2023-05-26T01:08:19.635Z,6.40
2023-05-26T01:10:31.705Z,6.35
2023-05-26T01:12:45.259Z,6.30
2023-05-26T01:14:57.355Z,6.28
2023-05-26T01:17:09.473Z,6.21
2023-05-26T01:19:25.054Z,6.16
2023-05-26T01:21:38.618Z,6.11
2023-05-26T01:23:52.184Z,6.09
2023-05-26T01:26:04.281Z,6.04
2023-05-26T01:28:17.858Z,5.95
2023-05-26T01:30:29.968Z,5.88
2023-05-26T01:32:43.624Z,5.85
2023-05-26T01:34:55.647Z,5.85
2023-05-26T01:37:11.181Z,5.88
2023-05-26T01:39:23.302Z,5.91
2023-05-26T01:41:35.404Z,5.92
2023-05-26T01:43:47.462Z,5.91
2023-05-26T01:46:01.079Z,5.83
2023-05-26T01:48:15.124Z,5.82
2023-05-26T01:50:27.215Z,5.81
2023-05-26T01:52:39.311Z,5.74
2023-05-26T01:54:52.887Z,5.74
2023-05-26T01:57:08.453Z,5.70
2023-05-26T01:59:22.052Z,5.66
2023-05-26T02:01:35.657Z,5.68
2023-05-26T02:03:51.345Z,5.70
2023-05-26T02:06:03.286Z,5.66
2023-05-26T02:08:15.389Z,5.60
2023-05-26T02:10:28.480Z,5.60
2023-05-26T02:12:42.077Z,5.55
2023-05-26T02:14:57.650Z,5.49
2023-05-26T02:17:09.701Z,5.46
2023-05-26T02:19:22.790Z,5.41
2023-05-26T02:21:36.365Z,5.37
2023-05-26T02:23:49.971Z,5.34
2023-05-26T02:26:03.592Z,5.34
2023-05-26T02:28:15.622Z,5.35
2023-05-26T02:30:29.214Z,5.37
2023-05-26T02:32:42.863Z,5.34
2023-05-26T02:34:54.909Z,5.28
2023-05-26T02:37:08.513Z,5.25
2023-05-26T02:39:22.062Z,5.23
2023-05-26T02:41:35.656Z,5.25
2023-05-26T02:43:47.764Z,5.27
2023-05-26T02:46:01.373Z,5.23
2023-05-26T02:48:16.929Z,5.23
2023-05-26T02:50:32.512Z,5.22
2023-05-26T02:52:44.633Z,5.17
2023-05-26T02:54:56.707Z,5.14
2023-05-26T02:57:10.315Z,5.13
2023-05-26T02:59:22.402Z,5.13
2023-05-26T03:01:36.007Z,5.12
2023-05-26T03:03:49.608Z,5.10
2023-05-26T03:06:03.135Z,5.09
2023-05-26T03:08:16.722Z,5.05
2023-05-26T03:10:30.348Z,4.96
2023-05-26T03:12:43.375Z,4.99
2023-05-26T03:14:57.513Z,4.96
2023-05-26T03:17:11.182Z,4.95
2023-05-26T03:19:24.686Z,4.92
2023-05-26T03:21:47.311Z,4.94
2023-05-26T03:23:50.380Z,4.96
2023-05-26T03:26:04.001Z,5.02
2023-05-26T03:28:17.008Z,5.09
2023-05-26T03:30:29.118Z,5.12
2023-05-26T03:32:42.714Z,5.17
2023-05-26T03:34:58.257Z,5.25
2023-05-26T03:37:10.343Z,5.30
2023-05-26T03:39:22.429Z,5.34
2023-05-26T03:41:36.580Z,5.37
2023-05-26T03:43:51.649Z,5.43
2023-05-26T03:46:07.232Z,5.52
2023-05-26T03:48:22.781Z,5.56
2023-05-26T03:50:36.340Z,5.63
2023-05-26T03:52:49.985Z,5.64
2023-05-26T03:55:03.053Z,5.71
2023-05-26T03:57:15.153Z,5.77
2023-05-26T03:59:28.707Z,5.78
2023-05-26T04:01:42.308Z,5.83
2023-05-26T04:03:55.922Z,5.89
2023-05-26T04:06:09.520Z,5.93
2023-05-26T04:08:23.069Z,6.04
2023-05-26T04:10:36.185Z,6.10
2023-05-26T04:12:49.213Z,6.19
2023-05-26T04:15:02.796Z,6.30
2023-05-26T04:17:14.911Z,6.43
2023-05-26T04:19:28.484Z,6.56
2023-05-26T04:21:42.060Z,6.72
2023-05-26T04:23:55.626Z,6.86
2023-05-26T04:26:07.721Z,6.95
2023-05-26T04:28:23.047Z,7.12
2023-05-26T04:30:33.388Z,7.27
2023-05-26T04:32:45.560Z,7.42
2023-05-26T04:34:57.571Z,7.59
2023-05-26T04:37:11.157Z,7.74
2023-05-26T04:39:23.321Z,7.92
2023-05-26T04:41:36.318Z,8.08
2023-05-26T04:43:49.891Z,8.26
2023-05-26T04:46:03.562Z,8.44
2023-05-26T04:48:16.233Z,8.58
2023-05-26T04:50:29.208Z,8.73
2023-05-26T04:52:41.281Z,8.90
2023-05-26T04:54:54.875Z,9.05
2023-05-26T04:57:08.467Z,9.20
2023-05-26T04:59:22.047Z,9.32
2023-05-26T05:01:34.225Z,9.48
2023-05-26T05:03:47.744Z,9.63
2023-05-26T05:05:59.811Z,9.79
2023-05-26T05:08:11.888Z,9.94
2023-05-26T05:10:23.979Z,10.09
2023-05-26T05:12:37.611Z,10.24
2023-05-26T05:14:49.652Z,10.39
2023-05-26T05:17:03.223Z,10.53
2023-05-26T05:19:16.815Z,10.65
2023-05-26T05:21:30.423Z,10.80
2023-05-26T05:23:42.524Z,10.99
2023-05-26T05:25:54.590Z,11.13
2023-05-26T05:28:10.183Z,11.32
2023-05-26T05:30:22.268Z,11.47
2023-05-26T05:32:36.003Z,11.68
2023-05-26T05:34:47.962Z,11.93
2023-05-26T05:37:01.557Z,12.11
2023-05-26T05:39:13.645Z,12.26
2023-05-26T05:41:25.806Z,12.57
2023-05-26T05:43:38.809Z,12.82
2023-05-26T05:45:50.923Z,13.03
2023-05-26T05:48:04.001Z,13.33
2023-05-26T05:50:16.086Z,13.63
2023-05-26T05:52:29.631Z,13.67
2023-05-26T05:54:41.785Z,13.76
2023-05-26T05:56:54.817Z,13.79
2023-05-26T05:59:08.378Z,14.06
2023-05-26T06:01:21.475Z,14.34
2023-05-26T06:03:34.627Z,14.37
2023-05-26T06:05:46.663Z,14.62
2023-05-26T06:08:00.273Z,14.71
2023-05-26T06:10:13.837Z,15.11
2023-05-26T06:12:27.406Z,15.26
2023-05-26T06:14:41.007Z,15.33
2023-05-26T06:16:54.631Z,15.33
2023-05-26T06:19:07.710Z,15.36
2023-05-26T06:21:21.271Z,15.70
2023-05-26T06:23:34.821Z,15.78
2023-05-26T06:25:48.396Z,15.82
2023-05-26T06:28:02.021Z,15.97
2023-05-26T06:30:17.595Z,16.15
2023-05-26T06:32:31.245Z,16.41
2023-05-26T06:34:43.282Z,16.42
2023-05-26T06:36:58.860Z,16.58
2023-05-26T06:39:11.934Z,16.77
2023-05-26T06:41:25.595Z,16.63
2023-05-26T06:43:38.642Z,16.78
2023-05-26T06:45:50.704Z,16.85
2023-05-26T06:48:02.831Z,17.18
2023-05-26T06:50:16.377Z,17.48
2023-05-26T06:52:30.474Z,17.64
2023-05-26T06:54:43.546Z,17.74
2023-05-26T06:56:59.121Z,17.92
2023-05-26T06:59:12.188Z,18.09
2023-05-26T07:01:27.820Z,18.00
2023-05-26T07:03:43.381Z,18.12
2023-05-26T07:05:57.718Z,18.33
2023-05-26T07:08:07.827Z,18.43
2023-05-26T07:10:19.928Z,18.27
2023-05-26T07:12:32.020Z,18.57
2023-05-26T07:14:44.123Z,18.67
2023-05-26T07:16:57.154Z,18.44
2023-05-26T07:19:09.266Z,18.50
2023-05-26T07:21:22.878Z,18.76
2023-05-26T07:23:34.956Z,18.87
2023-05-26T07:25:48.538Z,18.70
2023-05-26T07:28:02.140Z,18.47
2023-05-26T07:30:14.207Z,18.80
2023-05-26T07:32:27.296Z,19.17
2023-05-26T07:34:40.850Z,19.17
2023-05-26T07:36:53.975Z,18.99
2023-05-26T07:39:09.557Z,18.83
2023-05-26T07:41:23.110Z,18.84
2023-05-26T07:43:38.744Z,19.05
2023-05-26T07:45:50.831Z,19.01
2023-05-26T07:48:06.421Z,19.02
2023-05-26T07:50:19.971Z,19.05
2023-05-26T07:52:32.045Z,18.15
2023-05-26T07:54:45.616Z,17.59
2023-05-26T07:56:59.224Z,18.90
2023-05-26T07:59:12.842Z,18.62
2023-05-26T08:01:28.471Z,18.65
2023-05-26T08:03:40.571Z,19.54
2023-05-26T08:05:56.116Z,19.90
2023-05-26T08:08:09.681Z,20.06
2023-05-26T08:10:23.254Z,20.39
2023-05-26T08:12:36.825Z,20.81
2023-05-26T08:14:50.416Z,20.62
2023-05-26T08:17:04.011Z,20.62
2023-05-26T08:19:16.066Z,20.61
2023-05-26T08:21:31.659Z,20.42
2023-05-26T08:23:47.223Z,20.72
2023-05-26T08:25:59.313Z,20.24
2023-05-26T08:28:12.432Z,20.59
2023-05-26T08:30:24.509Z,21.19
2023-05-26T08:32:36.643Z,20.90
2023-05-26T08:34:48.617Z,20.95
2023-05-26T08:37:00.716Z,20.95
2023-05-26T08:39:14.282Z,21.19
2023-05-26T08:41:27.886Z,21.04
2023-05-26T08:43:46.604Z,21.29
2023-05-26T08:45:56.523Z,21.66
2023-05-26T08:48:08.663Z,21.66
2023-05-26T08:50:22.241Z,21.72
2023-05-26T08:52:35.798Z,21.99
2023-05-26T08:54:51.692Z,21.94
2023-05-26T08:57:05.246Z,22.06
2023-05-26T08:59:17.365Z,22.07
2023-05-26T09:01:31.113Z,21.63
2023-05-26T09:03:43.054Z,21.23
2023-05-26T09:05:57.108Z,21.59
2023-05-26T09:08:12.673Z,21.50
2023-05-26T09:10:26.244Z,21.97
2023-05-26T09:12:38.358Z,21.46
2023-05-26T09:14:51.973Z,21.59
2023-05-26T09:17:05.078Z,21.61
2023-05-26T09:19:18.670Z,21.88
2023-05-26T09:21:32.166Z,22.13
2023-05-26T09:23:46.681Z,22.27
2023-05-26T09:25:58.817Z,21.94
2023-05-26T09:28:12.426Z,22.06
2023-05-26T09:30:24.490Z,21.99
2023-05-26T09:32:37.579Z,22.44
2023-05-26T09:34:51.147Z,22.37
2023-05-26T09:37:04.838Z,22.37
2023-05-26T09:39:16.833Z,21.99
2023-05-26T09:41:28.882Z,22.29
2023-05-26T09:43:40.973Z,22.62
2023-05-26T09:45:56.745Z,22.78
2023-05-26T09:48:12.146Z,23.05
2023-05-26T09:50:24.242Z,23.50
2023-05-26T09:52:37.842Z,23.38
2023-05-26T09:54:53.396Z,23.19
2023-05-26T09:57:06.984Z,22.94
2023-05-26T09:59:20.554Z,22.94
2023-05-26T10:01:34.226Z,22.97
2023-05-26T10:03:49.756Z,23.23
2023-05-26T10:06:03.344Z,23.45
2023-05-26T10:08:16.946Z,23.55
2023-05-26T10:10:29.020Z,23.80
2023-05-26T10:12:41.141Z,23.89
2023-05-26T10:14:54.244Z,23.64
2023-05-26T10:17:06.322Z,23.40
2023-05-26T10:19:21.892Z,23.34
2023-05-26T10:21:33.972Z,23.50
2023-05-26T10:23:46.098Z,23.61
2023-05-26T10:25:59.655Z,23.76
2023-05-26T10:28:13.247Z,23.60
2023-05-26T10:30:25.328Z,23.53
2023-05-26T10:32:37.415Z,23.83
2023-05-26T10:34:49.507Z,23.34
2023-05-26T10:37:01.538Z,23.49
2023-05-26T10:39:13.690Z,23.32
2023-05-26T10:41:27.225Z,23.53
2023-05-26T10:43:40.310Z,23.53
2023-05-26T10:45:52.487Z,23.80
2023-05-26T10:48:06.031Z,24.29
2023-05-26T10:50:20.166Z,24.53
2023-05-26T10:52:31.638Z,24.73
2023-05-26T10:54:45.226Z,24.44
2023-05-26T10:56:57.332Z,24.60
2023-05-26T10:59:10.863Z,24.52
2023-05-26T11:01:23.309Z,24.47
2023-05-26T11:03:35.364Z,24.71
2023-05-26T11:05:47.430Z,25.07
2023-05-26T11:08:01.282Z,24.94
2023-05-26T11:10:13.124Z,25.39
2023-05-26T11:12:25.151Z,25.64
2023-05-26T11:14:38.748Z,25.53
2023-05-26T11:16:50.867Z,25.38
2023-05-26T11:19:04.902Z,25.12
2023-05-26T11:21:16.978Z,25.19
2023-05-26T11:23:30.548Z,25.62
2023-05-26T11:25:44.633Z,25.90
2023-05-26T11:27:58.230Z,25.65
2023-05-26T11:30:10.353Z,25.79
2023-05-26T11:32:23.946Z,25.93
2023-05-26T11:34:35.976Z,25.94
2023-05-26T11:36:49.569Z,26.22
2023-05-26T11:39:03.157Z,25.89
2023-05-26T11:40:03.144Z,25.83
2023-05-26T11:42:15.229Z,26.29
2023-05-26T11:44:27.287Z,25.87
2023-05-26T11:46:40.995Z,25.10
2023-05-26T11:48:54.454Z,25.02
2023-05-26T11:51:06.543Z,25.25
2023-05-26T11:55:33.167Z,23.86
2023-05-26T11:57:49.042Z,23.68
2023-05-26T12:00:02.977Z,24.07
2023-05-26T12:02:15.549Z,23.92
2023-05-26T12:04:31.166Z,24.00
2023-05-26T12:06:43.161Z,24.13
2023-05-26T12:08:55.212Z,24.49
2023-05-26T12:11:07.284Z,24.49
2023-05-26T12:13:20.419Z,24.41
2023-05-26T12:15:36.008Z,23.11
2023-05-26T12:17:48.086Z,22.67
2023-05-26T12:20:01.745Z,22.72
2023-05-26T12:22:17.431Z,22.28
2023-05-26T12:24:30.836Z,22.41
2023-05-26T12:26:44.411Z,22.39
2023-05-26T12:28:58.072Z,22.62
2023-05-26T12:31:09.654Z,22.68
2023-05-26T12:33:22.651Z,22.83
2023-05-26T12:35:35.701Z,23.01
2023-05-26T12:37:47.812Z,22.59
2023-05-26T12:39:59.910Z,22.38
2023-05-26T12:42:11.997Z,22.53
2023-05-26T12:44:24.061Z,22.43
2023-05-26T12:46:37.788Z,22.43
2023-05-26T12:48:49.802Z,22.44
2023-05-26T12:51:01.792Z,22.37
2023-05-26T12:53:15.422Z,22.41
2023-05-26T12:55:27.450Z,22.39
2023-05-26T12:57:40.541Z,22.41
2023-05-26T12:59:54.160Z,22.04
2023-05-26T13:02:08.779Z,22.01
2023-05-26T13:04:22.406Z,21.63
2023-05-26T13:06:35.903Z,21.66
2023-05-26T13:08:49.018Z,21.72
2023-05-26T13:11:02.588Z,21.76
2023-05-26T13:13:19.191Z,21.53
2023-05-26T13:15:33.752Z,21.36
2023-05-26T13:17:48.476Z,21.19
2023-05-26T13:20:00.457Z,21.30
2023-05-26T13:22:13.501Z,21.41
2023-05-26T13:24:27.100Z,21.35
2023-05-26T13:26:40.187Z,21.44
2023-05-26T13:28:52.272Z,20.96
2023-05-26T13:31:05.915Z,21.13
2023-05-26T13:33:19.039Z,21.16
2023-05-26T13:35:32.560Z,21.34
2023-05-26T13:37:45.716Z,21.54
2023-05-26T13:39:59.227Z,21.20
2023-05-26T13:42:12.857Z,20.98
2023-05-26T13:44:26.425Z,20.99
2023-05-26T13:46:38.589Z,20.87
2023-05-26T13:48:50.601Z,20.93
2023-05-26T13:51:03.664Z,20.98
2023-05-26T13:53:17.271Z,21.09
2023-05-26T13:55:30.832Z,21.21
2023-05-26T13:57:46.427Z,21.34
2023-05-26T13:59:59.537Z,21.21
2023-05-26T14:02:13.153Z,21.09
2023-05-26T14:04:28.751Z,20.98
2023-05-26T14:06:41.794Z,21.01
2023-05-26T14:08:54.890Z,21.09
2023-05-26T14:11:08.497Z,21.27
2023-05-26T14:13:20.569Z,21.34
2023-05-26T14:15:32.666Z,21.38
2023-05-26T14:17:50.347Z,21.44
2023-05-26T14:20:08.427Z,21.21
2023-05-26T14:21:39.160Z,21.16
2023-05-26T14:22:13.235Z,21.20
2023-05-26T14:22:58.785Z,21.21
2023-05-26T14:25:09.842Z,21.16
2023-05-26T14:27:21.974Z,21.13
2023-05-26T14:29:34.008Z,21.35
2023-05-26T14:31:46.119Z,21.21
2023-05-26T14:33:58.200Z,21.16
2023-05-26T14:36:19.885Z,21.14
2023-05-26T14:38:32.969Z,21.30
2023-05-26T14:40:45.413Z,21.41
2023-05-26T14:42:57.575Z,21.53
2023-05-26T14:45:09.636Z,21.45
2023-05-26T14:47:21.711Z,21.56
2023-05-26T14:49:36.285Z,21.63
2023-05-26T14:51:48.372Z,21.64
2023-05-26T14:54:00.412Z,21.66
2023-05-26T14:56:12.494Z,21.69
2023-05-26T14:58:24.628Z,21.69
2023-05-26T15:00:37.667Z,21.67
2023-05-26T15:02:51.311Z,21.72
2023-05-26T15:05:03.475Z,21.67
2023-05-26T15:07:16.921Z,21.50
2023-05-26T15:09:29.036Z,21.45
2023-05-26T15:11:41.104Z,21.51
2023-05-26T15:13:53.171Z,21.51
2023-05-26T15:16:05.308Z,21.57
2023-05-26T15:18:17.405Z,21.66
2023-05-26T15:20:29.461Z,21.71
2023-05-26T15:22:42.988Z,21.83
2023-05-26T15:24:55.076Z,21.90
2023-05-26T15:27:08.679Z,21.95
2023-05-26T15:29:20.772Z,21.94
2023-05-26T15:31:34.454Z,21.90
2023-05-26T15:33:46.422Z,22.02
2023-05-26T15:35:58.484Z,23.08
2023-05-26T15:38:10.577Z,24.56
2023-05-26T15:40:22.660Z,25.93
2023-05-26T15:42:34.747Z,26.81
2023-05-26T15:44:47.807Z,27.06
2023-05-26T15:47:02.389Z,26.94
2023-05-26T15:49:15.975Z,27.26
2023-05-26T15:51:29.594Z,27.73
2023-05-26T15:53:42.695Z,27.41
2023-05-26T15:55:55.728Z,27.16
2023-05-26T15:58:07.840Z,27.48
2023-05-26T16:00:19.912Z,27.77
2023-05-26T16:02:31.997Z,27.92
2023-05-26T16:04:44.102Z,27.69
2023-05-26T16:06:56.149Z,27.42
2023-05-26T16:09:08.254Z,26.86
2023-05-26T16:11:21.365Z,27.35
2023-05-26T16:13:33.400Z,28.07
2023-05-26T16:15:45.533Z,28.41
2023-05-26T16:17:57.594Z,28.14
2023-05-26T16:20:09.712Z,27.79
2023-05-26T16:22:22.731Z,27.86
2023-05-26T16:24:36.308Z,27.99
2023-05-26T16:26:49.385Z,27.46
2023-05-26T16:29:01.639Z,27.48
2023-05-26T16:31:13.622Z,27.10
2023-05-26T16:33:25.626Z,27.11
2023-05-26T16:35:37.695Z,26.42
2023-05-26T16:37:49.817Z,26.06
2023-05-26T16:40:02.853Z,26.25
2023-05-26T16:42:14.936Z,26.20
2023-05-26T16:44:27.009Z,25.42
2023-05-26T16:46:39.112Z,25.20
2023-05-26T16:48:51.222Z,25.19
2023-05-26T16:51:03.299Z,24.61
2023-05-26T16:53:15.362Z,24.63
2023-05-26T16:55:27.470Z,24.20
2023-05-26T16:57:39.551Z,23.80
2023-05-26T16:59:51.675Z,23.15
2023-05-26T17:02:03.776Z,22.10
2023-05-26T17:04:15.782Z,21.01
2023-05-26T17:06:27.872Z,20.15
2023-05-26T17:08:39.943Z,19.68
2023-05-26T17:10:52.068Z,19.38
2023-05-26T17:13:05.096Z,19.17
2023-05-26T17:15:17.171Z,18.99
2023-05-26T17:17:29.413Z,18.84
2023-05-26T17:19:41.402Z,18.74
2023-05-26T17:21:53.502Z,18.54
2023-05-26T17:24:05.539Z,18.37
2023-05-26T17:26:17.630Z,18.21
2023-05-26T17:28:30.691Z,18.09
2023-05-26T17:30:42.835Z,18.03
2023-05-26T17:32:56.244Z,17.89
2023-05-26T17:35:08.216Z,17.82
2023-05-26T17:37:20.297Z,17.70
2023-05-26T17:39:33.662Z,17.64
2023-05-26T17:41:45.761Z,17.51
2023-05-26T17:43:57.884Z,17.43
2023-05-26T17:46:09.944Z,17.28
2023-05-26T17:48:21.982Z,17.20
2023-05-26T17:50:36.264Z,17.10
2023-05-26T17:52:48.156Z,16.98
2023-05-26T17:55:00.277Z,16.93
2023-05-26T17:57:12.326Z,16.83
2023-05-26T17:59:24.395Z,16.75
2023-05-26T18:01:36.518Z,16.68
2023-05-26T18:03:48.606Z,16.62
2023-05-26T18:06:00.652Z,16.56
2023-05-26T18:08:13.019Z,16.49
2023-05-26T18:10:25.098Z,16.40
2023-05-26T18:12:38.168Z,16.30
2023-05-26T18:14:51.270Z,16.20
2023-05-26T18:17:03.397Z,16.12
2023-05-26T18:19:15.390Z,16.00
2023-05-26T18:21:27.546Z,15.92
2023-05-26T18:23:39.580Z,15.81
2023-05-26T18:25:51.661Z,15.74
2023-05-26T18:28:04.747Z,15.66
2023-05-26T18:30:16.811Z,15.59
2023-05-26T18:32:28.964Z,15.51
2023-05-26T18:34:40.976Z,15.42
2023-05-26T18:36:53.081Z,15.28
2023-05-26T18:39:05.155Z,15.17
2023-05-26T18:41:18.206Z,15.09
2023-05-26T18:43:30.287Z,15.01
2023-05-26T18:45:42.522Z,14.95
2023-05-26T18:47:54.459Z,14.88
2023-05-26T18:50:06.556Z,14.83
2023-05-26T18:52:18.647Z,14.78
2023-05-26T18:54:31.711Z,14.69
2023-05-26T18:56:44.792Z,14.57
2023-05-26T18:58:56.887Z,14.47
2023-05-26T19:01:09.031Z,14.35
2023-05-26T19:03:22.156Z,14.21
2023-05-26T19:05:35.833Z,14.09
2023-05-26T19:07:49.280Z,13.94
2023-05-26T19:10:01.329Z,13.80
2023-05-26T19:12:16.968Z,13.71
2023-05-26T19:14:31.499Z,13.62
2023-05-26T19:16:43.557Z,13.55
2023-05-26T19:18:55.691Z,13.44
2023-05-26T19:21:11.241Z,13.32
2023-05-26T19:23:26.875Z,13.22
2023-05-26T19:25:42.539Z,13.12
2023-05-26T19:28:00.469Z,12.99
2023-05-26T19:30:17.134Z,12.87
2023-05-26T19:32:31.678Z,12.71
2023-05-26T19:34:46.229Z,12.66
2023-05-26T19:36:59.799Z,12.56
2023-05-26T19:39:13.365Z,12.52
2023-05-26T19:43:42.035Z,12.38
2023-05-26T19:45:57.863Z,12.21
2023-05-26T19:48:13.286Z,12.08
2023-05-26T19:50:26.763Z,11.97
2023-05-26T19:52:38.866Z,11.86
2023-05-26T19:54:54.409Z,11.78
2023-05-26T19:57:08.066Z,11.72
2023-05-26T19:59:21.571Z,11.68
2023-05-26T20:01:35.294Z,11.62
2023-05-26T20:03:48.735Z,11.54
2023-05-26T20:06:02.463Z,11.53
2023-05-26T20:08:15.926Z,11.43
2023-05-26T20:10:30.464Z,11.35
2023-05-26T20:12:42.571Z,11.31
2023-05-26T20:14:54.662Z,11.24
2023-05-26T20:17:08.357Z,11.19
2023-05-26T20:19:23.826Z,11.14
2023-05-26T20:21:37.394Z,11.09
2023-05-26T20:23:50.979Z,11.03
2023-05-26T20:26:06.672Z,10.99
2023-05-26T20:28:18.628Z,10.95
2023-05-26T20:30:34.322Z,10.89
2023-05-26T20:32:46.354Z,10.88
2023-05-26T20:34:58.469Z,10.88
2023-05-26T20:37:12.640Z,10.88
2023-05-26T20:38:10.520Z,10.86
2023-05-26T20:40:22.595Z,10.81
2023-05-26T20:42:34.700Z,10.77
2023-05-26T20:44:46.766Z,10.70
2023-05-26T20:46:58.896Z,10.63
2023-05-26T20:49:10.941Z,10.56
2023-05-26T20:51:25.019Z,10.47
2023-05-26T20:53:35.087Z,10.44
2023-05-26T20:55:47.470Z,10.39
2023-05-26T20:58:00.560Z,10.33
2023-05-26T21:00:12.635Z,10.30
2023-05-26T21:02:24.820Z,10.25
2023-05-26T21:04:36.792Z,10.17
2023-05-26T21:06:48.956Z,10.14
2023-05-26T21:09:01.067Z,10.06
2023-05-26T21:11:13.132Z,10.03
2023-05-26T21:13:25.195Z,10.00
2023-05-26T21:15:37.301Z,9.94
2023-05-26T21:17:49.413Z,9.88
2023-05-26T21:20:01.540Z,9.83
2023-05-26T21:22:13.518Z,9.76
2023-05-26T21:24:25.598Z,9.70
2023-05-26T21:26:37.686Z,9.61
2023-05-26T21:28:49.831Z,9.53
2023-05-26T21:31:01.924Z,9.49
2023-05-26T21:33:14.974Z,9.43
2023-05-26T21:35:27.059Z,9.43
2023-05-26T21:37:39.155Z,9.40
2023-05-26T21:39:51.240Z,9.35
2023-05-26T21:42:03.349Z,9.31
2023-05-26T21:44:15.404Z,9.30
2023-05-26T21:46:27.548Z,9.25
2023-05-26T21:48:39.585Z,9.21
2023-05-26T21:50:51.683Z,9.12
2023-05-26T21:53:03.774Z,9.10
2023-05-26T21:55:15.847Z,9.09
2023-05-26T21:57:27.943Z,9.04
2023-05-26T21:59:40.053Z,8.99
2023-05-26T22:01:52.116Z,8.91
2023-05-26T22:04:04.217Z,8.83
2023-05-26T22:06:16.272Z,8.86
2023-05-26T22:08:28.363Z,8.81
2023-05-26T22:10:40.432Z,8.76
2023-05-26T22:12:52.520Z,8.66
2023-05-26T22:15:04.674Z,8.57
2023-05-26T22:17:17.065Z,8.57
2023-05-26T22:19:29.190Z,8.53
2023-05-26T22:21:41.225Z,8.47
2023-05-26T22:23:53.287Z,8.37
2023-05-26T22:26:05.386Z,8.32
2023-05-26T22:28:18.462Z,8.29
2023-05-26T22:30:30.532Z,8.29
2023-05-26T22:32:42.675Z,8.32
2023-05-26T22:34:54.701Z,8.30
2023-05-26T22:37:06.811Z,8.29
2023-05-26T22:39:18.883Z,8.26
2023-05-26T22:41:30.958Z,8.17
2023-05-26T22:43:43.051Z,8.08
2023-05-26T22:45:55.174Z,7.99
2023-05-26T22:48:07.352Z,7.99
2023-05-26T22:50:19.385Z,7.94
2023-05-26T22:52:31.444Z,7.85
2023-05-26T22:54:43.498Z,7.85
2023-05-26T22:56:55.588Z,7.84
2023-05-26T22:59:07.711Z,7.79
2023-05-26T23:01:19.819Z,7.71
2023-05-26T23:03:32.130Z,7.69
2023-05-26T23:05:43.952Z,7.69
2023-05-26T23:07:56.044Z,7.62
2023-05-26T23:10:08.147Z,7.58
2023-05-26T23:12:20.202Z,7.53
2023-05-26T23:14:32.340Z,7.47
2023-05-26T23:16:44.404Z,7.42
2023-05-26T23:18:56.510Z,7.40
2023-05-26T23:21:08.626Z,7.38
2023-05-26T23:23:20.681Z,7.37
2023-05-26T23:25:32.736Z,7.35
2023-05-26T23:27:44.821Z,7.34
2023-05-26T23:29:56.992Z,7.29
2023-05-26T23:32:10.106Z,7.23
2023-05-26T23:34:22.184Z,7.20
2023-05-26T23:36:35.208Z,7.17
2023-05-26T23:38:47.324Z,7.15
2023-05-26T23:40:59.407Z,7.13
2023-05-26T23:43:12.521Z,7.09
2023-05-26T23:45:24.579Z,7.05
2023-05-26T23:47:36.707Z,7.04
2023-05-26T23:49:48.748Z,6.99
2023-05-26T23:52:00.830Z,6.97
2023-05-26T23:54:12.904Z,6.86
2023-05-26T23:56:24.998Z,6.81
2023-05-26T23:58:37.043Z,6.83
